createdAt,value
2023-01-05T00:00:18.742Z,101211.38
2023-01-05T00:01:22.273Z,101221.19
2023-01-05T00:02:25.042Z,101204.34
2023-01-05T00:03:26.635Z,101220.31
2023-01-05T00:04:29.168Z,101219.50
2023-01-05T00:05:30.862Z,101214.19
2023-01-05T00:06:45.348Z,101222.28
2023-01-05T00:07:56.867Z,101223.22
2023-01-05T00:08:59.475Z,101222.38
2023-01-05T00:10:01.035Z,101221.69
2023-01-05T00:11:33.303Z,101226.16
2023-01-05T00:13:03.472Z,101228.81
2023-01-05T00:14:25.587Z,101233.44
2023-01-05T00:15:46.789Z,101231.72
2023-01-05T00:17:07.608Z,101225.69
2023-01-05T00:18:37.855Z,101226.66
2023-01-05T00:19:59.137Z,101229.44
2023-01-05T00:21:21.323Z,101227.59
2023-01-05T00:22:34.322Z,101225.09
2023-01-05T00:23:36.800Z,101231.25
2023-01-05T00:24:38.315Z,101223.28
2023-01-05T00:25:42.197Z,101231.25
2023-01-05T00:26:43.725Z,101218.81
2023-01-05T00:27:50.526Z,101217.97
2023-01-05T00:28:52.108Z,101216.16
2023-01-05T00:29:54.940Z,101228.59
2023-01-05T00:30:57.437Z,101234.78
2023-01-05T00:31:59.070Z,101230.28
2023-01-05T00:33:01.595Z,101234.78
2023-01-05T00:34:03.149Z,101233.91
2023-01-05T00:35:06.958Z,101219.78
2023-01-05T00:36:10.640Z,101228.59
2023-01-05T00:37:12.432Z,101226.91
2023-01-05T00:38:16.274Z,101228.59
2023-01-05T00:39:17.788Z,101224.25
2023-01-05T00:40:22.229Z,101232.94
2023-01-05T00:41:23.789Z,101215.28
2023-01-05T00:42:26.616Z,101231.25
2023-01-05T00:43:28.159Z,101227.75
2023-01-05T00:44:30.669Z,101228.59
2023-01-05T00:45:33.404Z,101221.56
2023-01-05T00:46:34.955Z,101233.91
2023-01-05T00:47:37.534Z,101217.97
2023-01-05T00:48:39.043Z,101227.59
2023-01-05T00:49:41.648Z,101229.44
2023-01-05T00:50:53.238Z,101225.09
2023-01-05T00:52:06.627Z,101237.44
2023-01-05T00:53:20.460Z,101228.59
2023-01-05T00:54:32.092Z,101236.59
2023-01-05T00:55:39.952Z,101230.28
2023-01-05T00:56:51.610Z,101227.75
2023-01-05T00:58:04.151Z,101228.59
2023-01-05T00:59:08.156Z,101240.91
2023-01-05T01:00:15.243Z,101237.44
2023-01-05T01:01:26.817Z,101243.72
2023-01-05T01:02:39.798Z,101252.56
2023-01-05T01:03:43.365Z,101245.53
2023-01-05T01:04:46.672Z,101243.81
2023-01-05T01:05:56.662Z,101248.19
2023-01-05T01:07:01.386Z,101253.50
2023-01-05T01:08:05.673Z,101248.19
2023-01-05T01:09:19.553Z,101251.81
2023-01-05T01:10:22.334Z,101247.47
2023-01-05T01:11:27.436Z,101244.81
2023-01-05T01:12:33.718Z,101242.97
2023-01-05T01:13:35.580Z,101244.81
2023-01-05T01:14:40.036Z,101242.25
2023-01-05T01:15:41.641Z,101244.06
2023-01-05T01:16:44.386Z,101240.44
2023-01-05T01:17:46.941Z,101244.06
2023-01-05T01:18:48.458Z,101240.56
2023-01-05T01:19:50.993Z,101247.72
2023-01-05T01:20:52.561Z,101246.72
2023-01-05T01:21:57.439Z,101246.00
2023-01-05T01:23:00.381Z,101248.66
2023-01-05T01:24:10.377Z,101252.28
2023-01-05T01:25:14.924Z,101246.09
2023-01-05T01:26:26.319Z,101243.56
2023-01-05T01:27:30.762Z,101248.91
2023-01-05T01:28:32.603Z,101251.66
2023-01-05T01:29:35.070Z,101237.50
2023-01-05T01:30:39.106Z,101240.19
2023-01-05T01:31:52.840Z,101243.81
2023-01-05T01:33:05.653Z,101249.25
2023-01-05T01:34:11.720Z,101252.06
2023-01-05T01:35:14.703Z,101250.22
2023-01-05T01:36:16.277Z,101243.22
2023-01-05T01:37:18.799Z,101242.38
2023-01-05T01:38:20.974Z,101252.16
2023-01-05T01:39:23.962Z,101247.69
2023-01-05T01:40:26.809Z,101253.00
2023-01-05T01:41:29.644Z,101245.03
2023-01-05T01:42:42.195Z,101247.69
2023-01-05T01:43:55.901Z,101251.31
2023-01-05T01:44:59.663Z,101254.97
2023-01-05T01:46:01.248Z,101261.09
2023-01-05T01:47:10.397Z,101255.91
2023-01-05T01:48:19.425Z,101265.59
2023-01-05T01:49:22.155Z,101262.19
2023-01-05T01:50:31.865Z,101264.00
2023-01-05T01:51:38.620Z,101266.66
2023-01-05T01:52:42.077Z,101272.00
2023-01-05T01:53:49.475Z,101270.31
2023-01-05T01:54:52.908Z,101265.84
2023-01-05T01:55:58.899Z,101264.00
2023-01-05T01:57:00.714Z,101254.34
2023-01-05T01:58:11.224Z,101258.81
2023-01-05T01:59:13.525Z,101271.16
2023-01-05T02:00:16.656Z,101272.97
2023-01-05T02:01:18.749Z,101275.63
2023-01-05T02:02:23.781Z,101272.00
2023-01-05T02:03:25.826Z,101280.09
2023-01-05T02:04:30.572Z,101284.47
2023-01-05T02:05:34.602Z,101287.13
2023-01-05T02:06:36.470Z,101274.78
2023-01-05T02:07:44.927Z,101278.41
2023-01-05T02:08:46.986Z,101282.78
2023-01-05T02:09:49.467Z,101278.41
2023-01-05T02:11:09.730Z,101277.44
2023-01-05T02:12:31.156Z,101280.22
2023-01-05T02:13:58.217Z,101269.72
2023-01-05T02:15:14.955Z,101278.66
2023-01-05T02:16:25.975Z,101280.47
2023-01-05T02:17:39.614Z,101263.78
2023-01-05T02:18:55.156Z,101278.03
2023-01-05T02:20:39.767Z,101277.19
2023-01-05T02:21:55.954Z,101273.69
2023-01-05T02:23:32.717Z,101275.53
2023-01-05T02:25:06.693Z,101277.31
2023-01-05T02:26:42.464Z,101277.44
2023-01-05T02:28:06.975Z,101277.56
2023-01-05T02:29:41.732Z,101287.34
2023-01-05T02:31:06.592Z,101283.00
2023-01-05T02:32:14.034Z,101281.28
2023-01-05T02:33:28.535Z,101281.28
2023-01-05T02:34:37.851Z,101286.59
2023-01-05T02:35:47.638Z,101282.16
2023-01-05T02:36:55.529Z,101288.31
2023-01-05T02:38:12.242Z,101290.97
2023-01-05T02:39:31.971Z,101287.47
2023-01-05T02:40:39.414Z,101288.31
2023-01-05T02:41:48.152Z,101291.72
2023-01-05T02:42:53.685Z,101299.69
2023-01-05T02:43:57.549Z,101282.03
2023-01-05T02:45:01.407Z,101297.75
2023-01-05T02:46:05.458Z,101286.25
2023-01-05T02:47:28.029Z,101282.75
2023-01-05T02:48:42.538Z,101296.91
2023-01-05T02:49:44.343Z,101291.59
2023-01-05T02:50:53.181Z,101296.78
2023-01-05T02:51:57.695Z,101302.13
2023-01-05T02:53:07.263Z,101310.91
2023-01-05T02:54:15.335Z,101306.44
2023-01-05T02:55:20.464Z,101302.13
2023-01-05T02:56:26.281Z,101305.72
2023-01-05T02:57:46.936Z,101303.06
2023-01-05T02:59:03.593Z,101305.72
2023-01-05T03:00:07.800Z,101294.38
2023-01-05T03:01:17.904Z,101297.03
2023-01-05T03:02:22.456Z,101297.03
2023-01-05T03:03:31.751Z,101298.97
2023-01-05T03:04:39.735Z,101293.63
2023-01-05T03:05:47.492Z,101305.22
2023-01-05T03:06:56.261Z,101300.91
2023-01-05T03:08:07.849Z,101303.56
2023-01-05T03:09:16.903Z,101299.19
2023-01-05T03:10:40.689Z,101301.84
2023-01-05T03:12:05.290Z,101298.34
2023-01-05T03:13:34.383Z,101297.50
2023-01-05T03:14:51.658Z,101299.44
2023-01-05T03:16:01.811Z,101294.13
2023-01-05T03:17:12.689Z,101298.59
2023-01-05T03:18:18.012Z,101292.31
2023-01-05T03:19:36.318Z,101294.97
2023-01-05T03:20:43.061Z,101290.50
2023-01-05T03:22:03.842Z,101292.31
2023-01-05T03:23:26.736Z,101300.28
2023-01-05T03:24:47.554Z,101298.47
2023-01-05T03:26:10.013Z,101301.13
2023-01-05T03:27:31.068Z,101307.31
2023-01-05T03:28:57.287Z,101309.97
2023-01-05T03:30:17.613Z,101312.72
2023-01-05T03:31:42.184Z,101318.06
2023-01-05T03:33:07.779Z,101319.00
2023-01-05T03:34:45.348Z,101318.06
2023-01-05T03:35:55.984Z,101312.72
2023-01-05T03:37:10.694Z,101313.69
2023-01-05T03:38:20.478Z,101326.88
2023-01-05T03:39:26.362Z,101327.72
2023-01-05T03:40:31.370Z,101321.56
2023-01-05T03:41:35.264Z,101319.00
2023-01-05T03:42:40.041Z,101320.72
2023-01-05T03:43:46.933Z,101318.91
2023-01-05T03:44:59.727Z,101322.41
2023-01-05T03:46:01.438Z,101321.56
2023-01-05T03:47:04.443Z,101318.06
2023-01-05T03:48:07.590Z,101315.28
2023-01-05T03:49:10.503Z,101321.44
2023-01-05T03:50:12.903Z,101315.16
2023-01-05T03:51:17.136Z,101316.00
2023-01-05T03:52:18.647Z,101306.22
2023-01-05T03:53:21.130Z,101313.34
2023-01-05T03:54:22.712Z,101316.84
2023-01-05T03:55:25.193Z,101317.81
2023-01-05T03:56:33.469Z,101311.53
2023-01-05T03:57:36.911Z,101316.00
2023-01-05T03:58:41.327Z,101302.81
2023-01-05T03:59:44.046Z,101309.84
2023-01-05T04:00:47.621Z,101310.69
2023-01-05T04:01:52.082Z,101315.16
2023-01-05T04:02:54.088Z,101312.50
2023-01-05T04:03:59.167Z,101308.97
2023-01-05T04:05:02.399Z,101323.28
2023-01-05T04:06:06.968Z,101316.25
2023-01-05T04:07:08.564Z,101318.91
2023-01-05T04:08:11.104Z,101318.06
2023-01-05T04:09:12.658Z,101315.50
2023-01-05T04:10:15.387Z,101313.94
2023-01-05T04:11:20.305Z,101313.94
2023-01-05T04:12:21.809Z,101313.06
2023-01-05T04:13:24.992Z,101307.91
2023-01-05T04:14:26.692Z,101315.03
2023-01-05T04:15:29.357Z,101316.97
2023-01-05T04:16:30.969Z,101326.75
2023-01-05T04:17:33.517Z,101325.03
2023-01-05T04:18:36.103Z,101323.34
2023-01-05T04:19:39.957Z,101327.84
2023-01-05T04:20:41.578Z,101324.31
2023-01-05T04:21:54.273Z,101323.56
2023-01-05T04:22:56.561Z,101327.31
2023-01-05T04:24:10.833Z,101319.59
2023-01-05T04:25:15.600Z,101324.28
2023-01-05T04:26:20.661Z,101323.56
2023-01-05T04:27:22.213Z,101324.53
2023-01-05T04:28:25.326Z,101324.63
2023-01-05T04:29:26.971Z,101322.81
2023-01-05T04:30:29.548Z,101327.41
2023-01-05T04:31:42.374Z,101336.25
2023-01-05T04:32:47.644Z,101326.47
2023-01-05T04:34:00.137Z,101331.78
2023-01-05T04:35:10.573Z,101339.63
2023-01-05T04:36:13.881Z,101339.63
2023-01-05T04:37:15.584Z,101337.91
2023-01-05T04:38:19.046Z,101335.25
2023-01-05T04:39:20.554Z,101332.59
2023-01-05T04:40:23.050Z,101334.31
2023-01-05T04:41:24.660Z,101339.63
2023-01-05T04:42:37.503Z,101340.47
2023-01-05T04:43:42.288Z,101339.53
2023-01-05T04:44:46.207Z,101336.97
2023-01-05T04:45:48.016Z,101336.09
2023-01-05T04:46:52.511Z,101332.59
2023-01-05T04:47:54.217Z,101337.91
2023-01-05T04:48:59.535Z,101339.75
2023-01-05T04:50:13.338Z,101340.47
2023-01-05T04:51:24.877Z,101342.41
2023-01-05T04:52:29.281Z,101338.03
2023-01-05T04:53:40.812Z,101342.66
2023-01-05T04:54:46.384Z,101346.50
2023-01-05T04:55:47.950Z,101343.09
2023-01-05T04:56:50.421Z,101340.78
2023-01-05T04:57:52.211Z,101350.56
2023-01-05T04:58:54.702Z,101347.19
2023-01-05T05:00:07.437Z,101345.50
2023-01-05T05:01:18.860Z,101350.81
2023-01-05T05:02:35.614Z,101346.44
2023-01-05T05:03:38.253Z,101345.72
2023-01-05T05:04:39.890Z,101350.06
2023-01-05T05:05:43.755Z,101347.53
2023-01-05T05:06:45.290Z,101347.63
2023-01-05T05:07:47.769Z,101348.47
2023-01-05T05:08:49.332Z,101350.28
2023-01-05T05:09:51.859Z,101343.28
2023-01-05T05:10:53.972Z,101348.72
2023-01-05T05:11:56.448Z,101349.56
2023-01-05T05:12:57.976Z,101350.41
2023-01-05T05:14:00.450Z,101346.06
2023-01-05T05:15:02.160Z,101347.84
2023-01-05T05:16:05.621Z,101352.22
2023-01-05T05:17:07.374Z,101349.56
2023-01-05T05:18:10.001Z,101348.72
2023-01-05T05:19:11.867Z,101357.31
2023-01-05T05:20:14.360Z,101346.66
2023-01-05T05:21:17.235Z,101352.72
2023-01-05T05:22:19.733Z,101358.03
2023-01-05T05:23:21.750Z,101348.25
2023-01-05T05:24:24.296Z,101346.44
2023-01-05T05:25:25.792Z,101349.94
2023-01-05T05:26:29.389Z,101353.47
2023-01-05T05:27:31.856Z,101358.78
2023-01-05T05:28:35.232Z,101355.16
2023-01-05T05:29:38.610Z,101351.66
2023-01-05T05:30:50.344Z,101351.53
2023-01-05T05:31:55.860Z,101357.69
2023-01-05T05:32:59.157Z,101360.34
2023-01-05T05:34:11.785Z,101356.84
2023-01-05T05:35:20.547Z,101356.84
2023-01-05T05:36:26.876Z,101363.13
2023-01-05T05:37:28.362Z,101363.13
2023-01-05T05:38:30.915Z,101366.75
2023-01-05T05:39:32.555Z,101363.13
2023-01-05T05:40:35.034Z,101364.81
2023-01-05T05:41:38.419Z,101363.84
2023-01-05T05:42:50.924Z,101369.19
2023-01-05T05:44:03.402Z,101363.84
2023-01-05T05:45:06.185Z,101362.16
2023-01-05T05:46:08.954Z,101360.47
2023-01-05T05:47:11.572Z,101370.13
2023-01-05T05:48:15.951Z,101371.09
2023-01-05T05:49:18.751Z,101363.13
2023-01-05T05:50:20.959Z,101371.94
2023-01-05T05:51:24.141Z,101371.94
2023-01-05T05:52:27.046Z,101376.28
2023-01-05T05:53:31.167Z,101380.75
2023-01-05T05:54:32.695Z,101391.38
2023-01-05T05:55:35.470Z,101388.72
2023-01-05T05:56:37.052Z,101391.38
2023-01-05T05:57:39.709Z,101392.25
2023-01-05T05:58:41.858Z,101394.91
2023-01-05T05:59:45.909Z,101387.78
2023-01-05T06:00:58.660Z,101401.06
2023-01-05T06:02:01.237Z,101400.94
2023-01-05T06:03:02.833Z,101415.22
2023-01-05T06:04:05.727Z,101409.03
2023-01-05T06:05:08.234Z,101403.72
2023-01-05T06:06:11.292Z,101411.69
2023-01-05T06:07:12.878Z,101411.78
2023-01-05T06:08:16.935Z,101412.66
2023-01-05T06:09:19.424Z,101417.09
2023-01-05T06:10:31.982Z,101407.47
2023-01-05T06:11:43.767Z,101405.75
2023-01-05T06:12:47.527Z,101411.06
2023-01-05T06:13:50.213Z,101404.91
2023-01-05T06:14:52.765Z,101407.56
2023-01-05T06:15:54.390Z,101411.16
2023-01-05T06:16:56.943Z,101412.88
2023-01-05T06:17:58.489Z,101408.50
2023-01-05T06:19:01.363Z,101410.34
2023-01-05T06:20:02.983Z,101415.66
2023-01-05T06:21:05.844Z,101415.66
2023-01-05T06:22:07.374Z,101420.13
2023-01-05T06:23:10.304Z,101425.44
2023-01-05T06:24:14.160Z,101416.72
2023-01-05T06:25:15.900Z,101421.31
2023-01-05T06:26:18.455Z,101416.94
2023-01-05T06:27:20.117Z,101424.19
2023-01-05T06:28:22.618Z,101417.16
2023-01-05T06:29:24.212Z,101420.81
2023-01-05T06:30:36.757Z,101425.28
2023-01-05T06:31:46.802Z,101417.41
2023-01-05T06:32:52.017Z,101421.00
2023-01-05T06:33:54.555Z,101433.47
2023-01-05T06:34:56.152Z,101430.91
2023-01-05T06:35:59.453Z,101431.88
2023-01-05T06:37:02.580Z,101435.50
2023-01-05T06:38:05.378Z,101425.81
2023-01-05T06:39:06.952Z,101430.41
2023-01-05T06:40:19.422Z,101427.84
2023-01-05T06:41:26.172Z,101436.69
2023-01-05T06:42:28.384Z,101438.47
2023-01-05T06:43:31.767Z,101434.97
2023-01-05T06:44:34.309Z,101433.28
2023-01-05T06:45:36.871Z,101430.63
2023-01-05T06:46:38.426Z,101434.13
2023-01-05T06:47:43.495Z,101433.16
2023-01-05T06:48:53.489Z,101436.69
2023-01-05T06:50:06.887Z,101435.72
2023-01-05T06:51:13.000Z,101432.09
2023-01-05T06:52:24.684Z,101435.72
2023-01-05T06:53:29.445Z,101439.34
2023-01-05T06:54:31.088Z,101444.66
2023-01-05T06:55:36.106Z,101440.28
2023-01-05T06:56:38.660Z,101442.22
2023-01-05T06:57:54.391Z,101442.22
2023-01-05T06:59:01.235Z,101439.56
2023-01-05T07:00:05.440Z,101454.66
2023-01-05T07:01:09.636Z,101443.91
2023-01-05T07:02:14.531Z,101442.94
2023-01-05T07:03:17.149Z,101436.69
2023-01-05T07:04:18.895Z,101440.19
2023-01-05T07:05:23.150Z,101446.34
2023-01-05T07:06:24.730Z,101439.09
2023-01-05T07:07:28.221Z,101442.72
2023-01-05T07:08:39.937Z,101440.81
2023-01-05T07:09:51.981Z,101444.41
2023-01-05T07:10:56.682Z,101452.38
2023-01-05T07:12:09.626Z,101448.88
2023-01-05T07:13:15.378Z,101447.22
2023-01-05T07:14:27.389Z,101447.06
2023-01-05T07:15:29.943Z,101452.53
2023-01-05T07:16:31.581Z,101449.72
2023-01-05T07:17:34.415Z,101456.75
2023-01-05T07:18:35.959Z,101459.41
2023-01-05T07:19:38.461Z,101462.91
2023-01-05T07:20:41.444Z,101461.09
2023-01-05T07:21:43.014Z,101469.06
2023-01-05T07:22:45.538Z,101469.06
2023-01-05T07:23:47.170Z,101464.59
2023-01-05T07:24:49.700Z,101470.75
2023-01-05T07:25:51.201Z,101460.13
2023-01-05T07:26:55.031Z,101470.75
2023-01-05T07:27:56.700Z,101470.75
2023-01-05T07:28:59.767Z,101472.47
2023-01-05T07:30:02.315Z,101476.81
2023-01-05T07:31:04.805Z,101480.31
2023-01-05T07:32:07.641Z,101482.88
2023-01-05T07:33:09.195Z,101481.06
2023-01-05T07:34:11.744Z,101475.63
2023-01-05T07:35:13.498Z,101478.41
2023-01-05T07:36:16.830Z,101470.31
2023-01-05T07:37:24.554Z,101472.97
2023-01-05T07:38:32.975Z,101486.25
2023-01-05T07:39:35.123Z,101487.97
2023-01-05T07:40:40.184Z,101486.16
2023-01-05T07:41:47.568Z,101486.03
2023-01-05T07:43:01.385Z,101473.72
2023-01-05T07:44:13.978Z,101477.34
2023-01-05T07:45:16.314Z,101477.34
2023-01-05T07:46:24.992Z,101465.00
2023-01-05T07:47:38.865Z,101466.94
2023-01-05T07:48:51.370Z,101467.88
2023-01-05T07:49:53.869Z,101474.16
2023-01-05T07:51:02.112Z,101475.84
2023-01-05T07:52:03.983Z,101481.16
2023-01-05T07:53:06.677Z,101488.19
2023-01-05T07:54:09.388Z,101482.88
2023-01-05T07:55:11.945Z,101486.25
2023-01-05T07:56:14.215Z,101487.97
2023-01-05T07:57:16.720Z,101496.78
2023-01-05T07:58:19.657Z,101488.69
2023-01-05T07:59:22.295Z,101498.38
2023-01-05T08:00:23.828Z,101494.75
2023-01-05T08:01:26.471Z,101503.47
2023-01-05T08:02:35.508Z,101501.75
2023-01-05T08:03:39.049Z,101508.78
2023-01-05T08:04:40.713Z,101507.19
2023-01-05T08:05:43.248Z,101509.72
2023-01-05T08:06:44.821Z,101511.44
2023-01-05T08:07:47.330Z,101505.41
2023-01-05T08:08:48.923Z,101516.88
2023-01-05T08:10:09.078Z,101521.56
2023-01-05T08:11:15.253Z,101513.69
2023-01-05T08:12:16.815Z,101516.47
2023-01-05T08:13:38.558Z,101515.63
2023-01-05T08:14:41.574Z,101516.66
2023-01-05T08:15:49.035Z,101518.59
2023-01-05T08:16:53.610Z,101524.97
2023-01-05T08:17:56.422Z,101524.13
2023-01-05T08:19:11.593Z,101527.72
2023-01-05T08:20:14.977Z,101528.50
2023-01-05T08:21:19.489Z,101533.69
2023-01-05T08:22:22.501Z,101525.59
2023-01-05T08:23:26.909Z,101520.28
2023-01-05T08:24:30.594Z,101534.31
2023-01-05T08:25:37.731Z,101527.09
2023-01-05T08:26:51.365Z,101528.78
2023-01-05T08:27:52.949Z,101528.78
2023-01-05T08:28:56.801Z,101523.47
2023-01-05T08:29:58.368Z,101526.88
2023-01-05T08:31:04.673Z,101521.56
2023-01-05T08:32:07.560Z,101520.56
2023-01-05T08:33:09.548Z,101524.09
2023-01-05T08:34:12.046Z,101524.94
2023-01-05T08:35:13.651Z,101531.97
2023-01-05T08:36:19.594Z,101532.81
2023-01-05T08:37:21.101Z,101532.69
2023-01-05T08:38:24.642Z,101531.75
2023-01-05T08:39:27.149Z,101539.59
2023-01-05T08:40:29.906Z,101543.97
2023-01-05T08:41:35.675Z,101538.53
2023-01-05T08:42:37.301Z,101543.72
2023-01-05T08:43:39.817Z,101540.22
2023-01-05T08:44:43.616Z,101539.16
2023-01-05T08:45:48.439Z,101539.06
2023-01-05T08:46:51.236Z,101544.38
2023-01-05T08:47:52.865Z,101546.06
2023-01-05T08:48:57.538Z,101543.41
2023-01-05T08:50:00.053Z,101550.41
2023-01-05T08:51:03.667Z,101549.47
2023-01-05T08:52:05.216Z,101550.31
2023-01-05T08:53:09.870Z,101555.50
2023-01-05T08:54:21.218Z,101557.22
2023-01-05T08:55:29.200Z,101557.22
2023-01-05T08:56:38.792Z,101558.91
2023-01-05T08:57:43.986Z,101555.31
2023-01-05T08:58:57.517Z,101556.97
2023-01-05T09:00:13.344Z,101548.06
2023-01-05T09:01:18.579Z,101548.06
2023-01-05T09:02:25.400Z,101551.66
2023-01-05T09:03:28.623Z,101552.53
2023-01-05T09:04:31.215Z,101561.34
2023-01-05T09:05:32.995Z,101560.41
2023-01-05T09:06:35.572Z,101564.63
2023-01-05T09:07:38.772Z,101559.31
2023-01-05T09:08:42.875Z,101561.84
2023-01-05T09:09:45.635Z,101558.25
2023-01-05T09:10:48.181Z,101568.03
2023-01-05T09:11:50.780Z,101565.38
2023-01-05T09:12:53.307Z,101568.78
2023-01-05T09:13:57.473Z,101572.25
2023-01-05T09:14:59.057Z,101570.38
2023-01-05T09:16:07.493Z,101569.28
2023-01-05T09:17:10.145Z,101573.75
2023-01-05T09:18:11.788Z,101584.16
2023-01-05T09:19:14.767Z,101576.94
2023-01-05T09:20:17.273Z,101583.94
2023-01-05T09:21:21.086Z,101576.72
2023-01-05T09:22:33.418Z,101580.09
2023-01-05T09:23:36.403Z,101580.94
2023-01-05T09:24:39.004Z,101578.19
2023-01-05T09:25:41.589Z,101579.03
2023-01-05T09:26:44.453Z,101578.19
2023-01-05T09:27:48.072Z,101582.53
2023-01-05T09:28:51.477Z,101585.19
2023-01-05T09:29:55.892Z,101587.84
2023-01-05T09:30:57.976Z,101592.22
2023-01-05T09:32:11.399Z,101594.16
2023-01-05T09:33:14.963Z,101590.50
2023-01-05T09:34:20.055Z,101596.59
2023-01-05T09:35:22.540Z,101599.25
2023-01-05T09:36:25.466Z,101596.47
2023-01-05T09:37:27.972Z,101595.50
2023-01-05T09:38:30.775Z,101593.69
2023-01-05T09:39:33.317Z,101599.03
2023-01-05T09:40:40.477Z,101602.53
2023-01-05T09:41:46.297Z,101606.03
2023-01-05T09:42:49.782Z,101601.69
2023-01-05T09:43:58.875Z,101605.06
2023-01-05T09:45:05.294Z,101602.41
2023-01-05T09:46:11.909Z,101609.31
2023-01-05T09:47:20.112Z,101611.97
2023-01-05T09:48:22.265Z,101611.09
2023-01-05T09:49:27.035Z,101618.13
2023-01-05T09:50:31.672Z,101613.69
2023-01-05T09:51:35.877Z,101613.69
2023-01-05T09:52:38.898Z,101620.81
2023-01-05T09:53:41.149Z,101617.06
2023-01-05T09:54:43.756Z,101625.16
2023-01-05T09:55:49.133Z,101624.22
2023-01-05T09:57:09.091Z,101627.69
2023-01-05T09:58:17.271Z,101630.25
2023-01-05T09:59:29.083Z,101631.97
2023-01-05T10:00:36.790Z,101634.63
2023-01-05T10:01:45.647Z,101634.63
2023-01-05T10:03:03.215Z,101629.19
2023-01-05T10:04:14.332Z,101639.72
2023-01-05T10:05:19.029Z,101637.94
2023-01-05T10:06:27.197Z,101638.75
2023-01-05T10:07:41.409Z,101638.75
2023-01-05T10:08:47.449Z,101635.25
2023-01-05T10:09:49.590Z,101636.09
2023-01-05T10:11:15.160Z,101631.63
2023-01-05T10:12:55.557Z,101633.44
2023-01-05T10:14:04.120Z,101637.94
2023-01-05T10:15:10.454Z,101633.44
2023-01-05T10:16:17.465Z,101636.00
2023-01-05T10:18:56.075Z,101644.69
2023-01-05T10:20:15.760Z,101643.84
2023-01-05T10:21:30.540Z,101647.25
2023-01-05T10:22:43.307Z,101648.97
2023-01-05T10:24:05.870Z,101647.03
2023-01-05T10:25:17.145Z,101643.41
2023-01-05T10:26:24.948Z,101647.75
2023-01-05T10:27:31.107Z,101647.75
2023-01-05T10:28:42.301Z,101653.84
2023-01-05T10:29:46.472Z,101645.94
2023-01-05T10:30:58.209Z,101648.50
2023-01-05T10:32:12.370Z,101646.81
2023-01-05T10:33:40.372Z,101656.50
2023-01-05T10:34:57.016Z,101650.41
2023-01-05T10:36:11.940Z,101652.97
2023-01-05T10:37:34.285Z,101652.84
2023-01-05T10:38:50.058Z,101656.28
2023-01-05T10:40:08.154Z,101656.13
2023-01-05T10:41:18.712Z,101656.03
2023-01-05T10:42:49.782Z,101653.38
2023-01-05T10:44:09.619Z,101653.38
2023-01-05T10:45:15.478Z,101653.38
2023-01-05T10:46:34.955Z,101655.91
2023-01-05T10:47:46.071Z,101654.09
2023-01-05T10:48:49.349Z,101660.22
2023-01-05T10:50:05.476Z,101652.97
2023-01-05T10:51:10.697Z,101657.34
2023-01-05T10:52:16.116Z,101670.41
2023-01-05T10:53:25.741Z,101665.19
2023-01-05T10:54:38.235Z,101665.09
2023-01-05T10:55:51.912Z,101664.97
2023-01-05T10:57:36.306Z,101666.75
2023-01-05T10:58:41.696Z,101666.53
2023-01-05T10:59:56.181Z,101669.94
2023-01-05T11:01:01.561Z,101666.34
2023-01-05T11:02:03.910Z,101672.38
2023-01-05T11:03:08.136Z,101660.78
2023-01-05T11:05:45.179Z,101666.59
2023-01-05T11:06:47.343Z,101662.84
2023-01-05T11:07:51.758Z,101662.75
2023-01-05T11:08:55.198Z,101663.47
2023-01-05T11:09:57.185Z,101665.91
2023-01-05T11:11:01.663Z,101664.00
2023-01-05T11:12:07.229Z,101669.09
2023-01-05T11:13:23.396Z,101661.84
2023-01-05T11:14:27.772Z,101664.41
2023-01-05T11:15:33.026Z,101656.41
2023-01-05T11:16:38.250Z,101661.59
2023-01-05T11:17:39.964Z,101666.81
2023-01-05T11:18:49.063Z,101658.69
2023-01-05T11:19:53.721Z,101660.50
2023-01-05T11:21:17.580Z,101664.03
2023-01-05T11:22:31.000Z,101667.53
2023-01-05T11:23:40.487Z,101656.78
2023-01-05T11:24:47.040Z,101656.66
2023-01-05T11:25:50.021Z,101658.22
2023-01-05T11:26:54.731Z,101665.03
2023-01-05T11:28:13.076Z,101655.00
2023-01-05T11:29:17.180Z,101663.63
2023-01-05T11:30:21.548Z,101659.84
2023-01-05T11:31:28.997Z,101672.31
2023-01-05T11:32:41.793Z,101660.94
2023-01-05T11:33:57.578Z,101665.56
2023-01-05T11:35:19.610Z,101663.84
2023-01-05T11:36:22.541Z,101654.16
2023-01-05T11:37:27.376Z,101663.84
2023-01-05T11:38:31.658Z,101661.09
2023-01-05T11:39:36.434Z,101664.56
2023-01-05T11:40:44.326Z,101664.56
2023-01-05T11:41:46.019Z,101666.41
2023-01-05T11:42:48.619Z,101660.22
2023-01-05T11:43:52.399Z,101664.56
2023-01-05T11:44:58.075Z,101668.00
2023-01-05T11:46:03.202Z,101666.28
2023-01-05T11:47:06.815Z,101669.91
2023-01-05T11:48:09.824Z,101671.00
2023-01-05T11:49:12.491Z,101673.78
2023-01-05T11:50:24.903Z,101672.06
2023-01-05T11:51:36.173Z,101669.50
2023-01-05T11:52:41.035Z,101674.03
2023-01-05T11:53:43.600Z,101666.97
2023-01-05T11:54:45.200Z,101669.66
2023-01-05T11:55:47.734Z,101662.50
2023-01-05T11:56:52.946Z,101663.38
2023-01-05T11:58:13.245Z,101662.50
2023-01-05T11:59:29.493Z,101655.47
2023-01-05T12:00:50.798Z,101657.41
2023-01-05T12:02:14.368Z,101650.38
2023-01-05T12:03:36.968Z,101655.09
2023-01-05T12:05:01.289Z,101656.28
2023-01-05T12:06:12.268Z,101653.84
2023-01-05T12:07:36.831Z,101655.03
2023-01-05T12:08:49.071Z,101651.53
2023-01-05T12:09:59.305Z,101656.88
2023-01-05T12:11:16.416Z,101661.22
2023-01-05T12:12:30.006Z,101659.31
2023-01-05T12:13:50.832Z,101648.53
2023-01-05T12:15:06.020Z,101651.06
2023-01-05T12:16:20.658Z,101655.31
2023-01-05T12:17:45.833Z,101657.13
2023-01-05T12:19:11.754Z,101650.22
2023-01-05T12:20:31.589Z,101650.47
2023-01-05T12:21:39.667Z,101655.16
2023-01-05T12:23:07.948Z,101659.88
2023-01-05T12:24:38.556Z,101653.06
2023-01-05T12:25:53.365Z,101651.25
2023-01-05T12:27:07.899Z,101658.28
2023-01-05T12:28:41.042Z,101654.78
2023-01-05T12:34:01.893Z,101653.06
2023-01-05T12:35:09.283Z,101658.38
2023-01-05T12:36:22.457Z,101656.56
2023-01-05T12:37:39.954Z,101660.94
2023-01-05T12:39:05.534Z,101663.47
2023-01-05T12:40:26.573Z,101669.56
2023-01-05T12:41:47.027Z,101662.41
2023-01-05T12:42:58.864Z,101657.94
2023-01-05T12:44:30.947Z,101663.25
2023-01-05T12:45:53.134Z,101657.81
2023-01-05T12:47:07.470Z,101655.03
2023-01-05T12:48:16.137Z,101666.53
2023-01-05T12:49:23.875Z,101662.06
2023-01-05T12:50:32.946Z,101655.78
2023-01-05T12:51:47.658Z,101659.16
2023-01-05T12:53:12.586Z,101659.69
2023-01-05T12:54:29.105Z,101663.69
2023-01-05T12:55:39.004Z,101660.69
2023-01-05T12:56:48.475Z,101664.81
2023-01-05T12:57:54.256Z,101660.34
2023-01-05T12:59:08.105Z,101656.72